sensor_id;sensor_type;location;lat;lon;timestamp;temperature;humidity
65462;DHT22;53236;43.666;18.444;2023-07-09T00:00:16;12.50;99.90
65462;DHT22;53236;43.666;18.444;2023-07-09T00:02:43;12.50;99.90
65462;DHT22;53236;43.666;18.444;2023-07-09T00:05:11;12.50;99.90
65462;DHT22;53236;43.666;18.444;2023-07-09T00:07:38;12.50;99.90
65462;DHT22;53236;43.666;18.444;2023-07-09T00:10:06;12.50;99.90
65462;DHT22;53236;43.666;18.444;2023-07-09T00:12:37;12.50;99.90
65462;DHT22;53236;43.666;18.444;2023-07-09T00:15:04;12.40;99.90
65462;DHT22;53236;43.666;18.444;2023-07-09T00:17:32;12.40;99.90
65462;DHT22;53236;43.666;18.444;2023-07-09T00:20:03;12.40;99.90
65462;DHT22;53236;43.666;18.444;2023-07-09T00:22:36;12.40;99.90
65462;DHT22;53236;43.666;18.444;2023-07-09T00:25:02;12.50;99.90
65462;DHT22;53236;43.666;18.444;2023-07-09T00:27:29;12.50;99.90
65462;DHT22;53236;43.666;18.444;2023-07-09T00:29:58;12.50;99.90
65462;DHT22;53236;43.666;18.444;2023-07-09T00:32:24;12.60;99.90
65462;DHT22;53236;43.666;18.444;2023-07-09T00:34:51;12.60;99.90
65462;DHT22;53236;43.666;18.444;2023-07-09T00:37:21;12.60;99.90
65462;DHT22;53236;43.666;18.444;2023-07-09T00:39:51;12.70;99.90
65462;DHT22;53236;43.666;18.444;2023-07-09T00:42:19;12.70;99.90
65462;DHT22;53236;43.666;18.444;2023-07-09T00:44:53;12.80;99.90
65462;DHT22;53236;43.666;18.444;2023-07-09T00:52:53;12.80;99.90
65462;DHT22;53236;43.666;18.444;2023-07-09T00:55:24;12.70;99.90
65462;DHT22;53236;43.666;18.444;2023-07-09T00:57:54;12.70;99.90
65462;DHT22;53236;43.666;18.444;2023-07-09T01:00:31;12.70;99.90
65462;DHT22;53236;43.666;18.444;2023-07-09T01:03:02;12.70;99.90
65462;DHT22;53236;43.666;18.444;2023-07-09T01:05:29;12.70;99.90
65462;DHT22;53236;43.666;18.444;2023-07-09T01:07:55;12.70;99.90
65462;DHT22;53236;43.666;18.444;2023-07-09T01:10:23;12.60;99.90
65462;DHT22;53236;43.666;18.444;2023-07-09T01:12:50;12.50;99.90
65462;DHT22;53236;43.666;18.444;2023-07-09T01:15:16;12.50;99.90
65462;DHT22;53236;43.666;18.444;2023-07-09T01:17:42;12.40;99.90
65462;DHT22;53236;43.666;18.444;2023-07-09T01:20:15;12.40;99.90
65462;DHT22;53236;43.666;18.444;2023-07-09T01:22:41;12.40;99.90
65462;DHT22;53236;43.666;18.444;2023-07-09T01:25:07;12.40;99.90
65462;DHT22;53236;43.666;18.444;2023-07-09T01:27:39;12.30;99.90
65462;DHT22;53236;43.666;18.444;2023-07-09T01:30:13;12.30;99.90
65462;DHT22;53236;43.666;18.444;2023-07-09T01:32:42;12.30;99.90
65462;DHT22;53236;43.666;18.444;2023-07-09T01:35:13;12.30;99.90
65462;DHT22;53236;43.666;18.444;2023-07-09T01:37:41;12.40;99.90
65462;DHT22;53236;43.666;18.444;2023-07-09T01:40:09;12.30;99.90
65462;DHT22;53236;43.666;18.444;2023-07-09T01:42:36;12.20;99.90
65462;DHT22;53236;43.666;18.444;2023-07-09T01:45:05;12.10;99.90
65462;DHT22;53236;43.666;18.444;2023-07-09T01:47:31;12.20;99.90
65462;DHT22;53236;43.666;18.444;2023-07-09T01:49:57;12.10;99.90
65462;DHT22;53236;43.666;18.444;2023-07-09T01:52:29;12.10;99.90
65462;DHT22;53236;43.666;18.444;2023-07-09T01:54:55;12.00;99.90
65462;DHT22;53236;43.666;18.444;2023-07-09T01:57:23;11.80;99.90
65462;DHT22;53236;43.666;18.444;2023-07-09T01:59:53;11.90;99.90
65462;DHT22;53236;43.666;18.444;2023-07-09T02:02:22;12.00;99.90
65462;DHT22;53236;43.666;18.444;2023-07-09T02:04:50;12.00;99.90
65462;DHT22;53236;43.666;18.444;2023-07-09T02:07:17;11.80;99.90
65462;DHT22;53236;43.666;18.444;2023-07-09T02:09:44;11.90;99.90
65462;DHT22;53236;43.666;18.444;2023-07-09T02:12:11;11.80;99.90
65462;DHT22;53236;43.666;18.444;2023-07-09T02:14:38;11.90;99.90
65462;DHT22;53236;43.666;18.444;2023-07-09T02:17:04;11.90;99.90
65462;DHT22;53236;43.666;18.444;2023-07-09T02:19:30;11.80;99.90
65462;DHT22;53236;43.666;18.444;2023-07-09T02:21:56;11.80;99.90
65462;DHT22;53236;43.666;18.444;2023-07-09T02:24:22;11.90;99.90
65462;DHT22;53236;43.666;18.444;2023-07-09T02:26:58;11.90;99.90
65462;DHT22;53236;43.666;18.444;2023-07-09T02:29:25;12.00;99.90
65462;DHT22;53236;43.666;18.444;2023-07-09T02:31:53;12.00;99.90
65462;DHT22;53236;43.666;18.444;2023-07-09T02:34:19;12.10;99.90
65462;DHT22;53236;43.666;18.444;2023-07-09T02:36:46;11.90;99.90
65462;DHT22;53236;43.666;18.444;2023-07-09T02:39:13;11.90;99.90
65462;DHT22;53236;43.666;18.444;2023-07-09T02:41:40;11.90;99.90
65462;DHT22;53236;43.666;18.444;2023-07-09T02:44:06;12.00;99.90
65462;DHT22;53236;43.666;18.444;2023-07-09T02:46:32;12.00;99.90
65462;DHT22;53236;43.666;18.444;2023-07-09T02:48:59;12.10;99.90
65462;DHT22;53236;43.666;18.444;2023-07-09T02:51:25;12.10;99.90
65462;DHT22;53236;43.666;18.444;2023-07-09T02:53:54;12.10;99.90
65462;DHT22;53236;43.666;18.444;2023-07-09T02:56:20;12.10;99.90
65462;DHT22;53236;43.666;18.444;2023-07-09T02:58:45;12.00;99.90
65462;DHT22;53236;43.666;18.444;2023-07-09T03:01:11;11.90;99.90
65462;DHT22;53236;43.666;18.444;2023-07-09T03:03:38;11.80;99.90
65462;DHT22;53236;43.666;18.444;2023-07-09T03:06:05;11.60;99.90
65462;DHT22;53236;43.666;18.444;2023-07-09T03:08:31;11.50;99.90
65462;DHT22;53236;43.666;18.444;2023-07-09T03:10:57;11.40;99.90
65462;DHT22;53236;43.666;18.444;2023-07-09T03:13:23;11.40;99.90
65462;DHT22;53236;43.666;18.444;2023-07-09T03:15:58;11.40;99.90
65462;DHT22;53236;43.666;18.444;2023-07-09T03:18:24;11.60;99.90
65462;DHT22;53236;43.666;18.444;2023-07-09T03:20:50;11.60;99.90
65462;DHT22;53236;43.666;18.444;2023-07-09T03:23:16;11.70;99.90
65462;DHT22;53236;43.666;18.444;2023-07-09T03:25:43;11.60;99.90
65462;DHT22;53236;43.666;18.444;2023-07-09T03:28:09;11.70;99.90
65462;DHT22;53236;43.666;18.444;2023-07-09T03:30:42;11.50;99.90
65462;DHT22;53236;43.666;18.444;2023-07-09T03:33:10;11.50;99.90
65462;DHT22;53236;43.666;18.444;2023-07-09T03:35:35;11.50;99.90
65462;DHT22;53236;43.666;18.444;2023-07-09T03:38:04;11.40;99.90
65462;DHT22;53236;43.666;18.444;2023-07-09T03:40:30;11.50;99.90
65462;DHT22;53236;43.666;18.444;2023-07-09T03:42:56;11.30;99.90
65462;DHT22;53236;43.666;18.444;2023-07-09T03:45:22;11.30;99.90
65462;DHT22;53236;43.666;18.444;2023-07-09T03:47:48;11.40;99.90
65462;DHT22;53236;43.666;18.444;2023-07-09T03:50:14;11.50;99.90
65462;DHT22;53236;43.666;18.444;2023-07-09T03:52:40;11.50;99.90
65462;DHT22;53236;43.666;18.444;2023-07-09T03:55:06;11.50;99.90
65462;DHT22;53236;43.666;18.444;2023-07-09T03:57:33;11.50;99.90
65462;DHT22;53236;43.666;18.444;2023-07-09T03:59:59;11.60;99.90
65462;DHT22;53236;43.666;18.444;2023-07-09T04:02:25;11.50;99.90
65462;DHT22;53236;43.666;18.444;2023-07-09T04:04:51;11.40;99.90
65462;DHT22;53236;43.666;18.444;2023-07-09T04:07:18;11.40;99.90
65462;DHT22;53236;43.666;18.444;2023-07-09T04:09:45;11.40;99.90
65462;DHT22;53236;43.666;18.444;2023-07-09T04:12:10;11.50;99.90
65462;DHT22;53236;43.666;18.444;2023-07-09T04:14:37;11.50;99.90
65462;DHT22;53236;43.666;18.444;2023-07-09T04:17:03;11.50;99.90
65462;DHT22;53236;43.666;18.444;2023-07-09T04:19:29;11.60;99.90
65462;DHT22;53236;43.666;18.444;2023-07-09T04:21:55;11.70;99.90
65462;DHT22;53236;43.666;18.444;2023-07-09T04:24:21;11.90;99.90
65462;DHT22;53236;43.666;18.444;2023-07-09T04:26:47;11.90;99.90
65462;DHT22;53236;43.666;18.444;2023-07-09T04:29:14;12.00;99.90
65462;DHT22;53236;43.666;18.444;2023-07-09T04:31:40;12.20;99.90
65462;DHT22;53236;43.666;18.444;2023-07-09T04:34:06;12.40;99.90
65462;DHT22;53236;43.666;18.444;2023-07-09T04:36:32;12.50;99.90
65462;DHT22;53236;43.666;18.444;2023-07-09T04:38:58;12.60;99.90
65462;DHT22;53236;43.666;18.444;2023-07-09T04:41:24;12.70;99.90
65462;DHT22;53236;43.666;18.444;2023-07-09T04:43:50;12.80;99.90
65462;DHT22;53236;43.666;18.444;2023-07-09T04:46:16;12.80;99.90
65462;DHT22;53236;43.666;18.444;2023-07-09T04:48:42;12.70;99.90
65462;DHT22;53236;43.666;18.444;2023-07-09T04:51:07;12.80;99.90
65462;DHT22;53236;43.666;18.444;2023-07-09T04:53:34;12.90;99.90
65462;DHT22;53236;43.666;18.444;2023-07-09T04:55:59;13.10;99.90
65462;DHT22;53236;43.666;18.444;2023-07-09T04:58:28;13.30;99.90
65462;DHT22;53236;43.666;18.444;2023-07-09T05:00:58;13.40;99.90
65462;DHT22;53236;43.666;18.444;2023-07-09T05:03:23;13.70;99.90
65462;DHT22;53236;43.666;18.444;2023-07-09T05:05:49;13.80;99.90
65462;DHT22;53236;43.666;18.444;2023-07-09T05:08:15;13.80;99.90
65462;DHT22;53236;43.666;18.444;2023-07-09T05:10:47;13.90;99.90
65462;DHT22;53236;43.666;18.444;2023-07-09T05:13:16;14.00;99.90
65462;DHT22;53236;43.666;18.444;2023-07-09T05:15:44;14.20;99.90
65462;DHT22;53236;43.666;18.444;2023-07-09T05:18:11;14.40;99.90
65462;DHT22;53236;43.666;18.444;2023-07-09T05:20:37;14.80;99.90
65462;DHT22;53236;43.666;18.444;2023-07-09T05:23:03;14.90;99.90
65462;DHT22;53236;43.666;18.444;2023-07-09T05:25:30;15.40;99.90
65462;DHT22;53236;43.666;18.444;2023-07-09T05:27:55;15.30;99.90
65462;DHT22;53236;43.666;18.444;2023-07-09T05:30:22;15.80;99.90
65462;DHT22;53236;43.666;18.444;2023-07-09T05:32:47;16.50;99.90
65462;DHT22;53236;43.666;18.444;2023-07-09T05:35:13;16.90;99.90
65462;DHT22;53236;43.666;18.444;2023-07-09T05:37:39;17.70;99.90
65462;DHT22;53236;43.666;18.444;2023-07-09T05:40:07;18.80;99.90
65462;DHT22;53236;43.666;18.444;2023-07-09T05:42:33;20.10;97.00
65462;DHT22;53236;43.666;18.444;2023-07-09T05:44:59;21.30;90.20
65462;DHT22;53236;43.666;18.444;2023-07-09T05:47:25;23.20;82.30
65462;DHT22;53236;43.666;18.444;2023-07-09T05:49:51;24.90;72.30
65462;DHT22;53236;43.666;18.444;2023-07-09T05:52:19;26.50;64.10
65462;DHT22;53236;43.666;18.444;2023-07-09T05:54:45;27.60;64.30
65462;DHT22;53236;43.666;18.444;2023-07-09T05:57:11;29.10;58.30
65462;DHT22;53236;43.666;18.444;2023-07-09T05:59:37;30.50;55.70
65462;DHT22;53236;43.666;18.444;2023-07-09T06:02:03;31.70;54.10
65462;DHT22;53236;43.666;18.444;2023-07-09T06:04:29;33.20;50.90
65462;DHT22;53236;43.666;18.444;2023-07-09T06:06:57;34.70;49.60
65462;DHT22;53236;43.666;18.444;2023-07-09T06:09:22;35.90;46.70
65462;DHT22;53236;43.666;18.444;2023-07-09T06:11:48;36.10;45.80
65462;DHT22;53236;43.666;18.444;2023-07-09T06:14:14;35.90;45.10
65462;DHT22;53236;43.666;18.444;2023-07-09T06:16:42;36.30;44.90
65462;DHT22;53236;43.666;18.444;2023-07-09T06:19:09;37.40;44.60
65462;DHT22;53236;43.666;18.444;2023-07-09T06:21:35;38.30;42.80
65462;DHT22;53236;43.666;18.444;2023-07-09T06:24:01;36.50;43.10
65462;DHT22;53236;43.666;18.444;2023-07-09T06:26:27;36.70;45.20
65462;DHT22;53236;43.666;18.444;2023-07-09T06:28:53;37.80;43.10
65462;DHT22;53236;43.666;18.444;2023-07-09T06:31:19;38.80;42.50
65462;DHT22;53236;43.666;18.444;2023-07-09T06:33:47;38.40;42.00
65462;DHT22;53236;43.666;18.444;2023-07-09T06:36:13;40.10;41.50
65462;DHT22;53236;43.666;18.444;2023-07-09T06:38:39;40.90;39.90
65462;DHT22;53236;43.666;18.444;2023-07-09T06:41:04;39.90;40.90
65462;DHT22;53236;43.666;18.444;2023-07-09T06:43:30;40.90;40.10
65462;DHT22;53236;43.666;18.444;2023-07-09T06:45:58;41.80;40.30
65462;DHT22;53236;43.666;18.444;2023-07-09T06:48:25;42.70;39.70
65462;DHT22;53236;43.666;18.444;2023-07-09T06:50:53;43.40;39.10
65462;DHT22;53236;43.666;18.444;2023-07-09T06:53:20;44.00;38.40
65462;DHT22;53236;43.666;18.444;2023-07-09T06:55:46;43.00;38.20
65462;DHT22;53236;43.666;18.444;2023-07-09T06:58:12;42.40;39.50
65462;DHT22;53236;43.666;18.444;2023-07-09T07:00:38;42.70;38.90
65462;DHT22;53236;43.666;18.444;2023-07-09T07:03:05;42.40;38.70
65462;DHT22;53236;43.666;18.444;2023-07-09T07:05:31;42.20;37.40
65462;DHT22;53236;43.666;18.444;2023-07-09T07:07:57;41.60;38.10
65462;DHT22;53236;43.666;18.444;2023-07-09T07:10:23;40.70;39.10
65462;DHT22;53236;43.666;18.444;2023-07-09T07:12:49;39.60;39.50
65462;DHT22;53236;43.666;18.444;2023-07-09T07:15:18;40.50;40.50
65462;DHT22;53236;43.666;18.444;2023-07-09T07:17:44;39.50;39.30
65462;DHT22;53236;43.666;18.444;2023-07-09T07:20:12;40.50;40.20
65462;DHT22;53236;43.666;18.444;2023-07-09T07:22:39;40.90;40.30
65462;DHT22;53236;43.666;18.444;2023-07-09T07:25:06;41.70;40.30
65462;DHT22;53236;43.666;18.444;2023-07-09T07:27:32;41.60;38.70
65462;DHT22;53236;43.666;18.444;2023-07-09T07:29:58;42.20;39.10
65462;DHT22;53236;43.666;18.444;2023-07-09T07:32:24;43.10;38.80
65462;DHT22;53236;43.666;18.444;2023-07-09T07:34:49;42.20;39.10
65462;DHT22;53236;43.666;18.444;2023-07-09T07:37:18;42.70;38.60
65462;DHT22;53236;43.666;18.444;2023-07-09T07:39:49;44.00;38.30
65462;DHT22;53236;43.666;18.444;2023-07-09T07:42:15;42.50;37.90
65462;DHT22;53236;43.666;18.444;2023-07-09T07:44:41;40.60;39.50
65462;DHT22;53236;43.666;18.444;2023-07-09T07:47:06;41.20;40.00
65462;DHT22;53236;43.666;18.444;2023-07-09T07:49:32;41.90;38.60
65462;DHT22;53236;43.666;18.444;2023-07-09T07:51:58;43.50;38.50
65462;DHT22;53236;43.666;18.444;2023-07-09T07:54:24;43.20;37.30
65462;DHT22;53236;43.666;18.444;2023-07-09T07:56:50;42.00;39.50
65462;DHT22;53236;43.666;18.444;2023-07-09T07:59:17;40.90;39.50
65462;DHT22;53236;43.666;18.444;2023-07-09T08:01:43;41.00;40.10
65462;DHT22;53236;43.666;18.444;2023-07-09T08:04:09;42.80;39.00
65462;DHT22;53236;43.666;18.444;2023-07-09T08:06:34;44.30;37.90
65462;DHT22;53236;43.666;18.444;2023-07-09T08:09:01;45.00;36.20
65462;DHT22;53236;43.666;18.444;2023-07-09T08:11:26;44.20;34.70
65462;DHT22;53236;43.666;18.444;2023-07-09T08:13:54;43.20;36.40
65462;DHT22;53236;43.666;18.444;2023-07-09T08:16:19;42.50;35.80
65462;DHT22;53236;43.666;18.444;2023-07-09T08:18:45;40.80;36.70
65462;DHT22;53236;43.666;18.444;2023-07-09T08:21:11;40.80;38.20
65462;DHT22;53236;43.666;18.444;2023-07-09T08:23:36;40.10;38.50
65462;DHT22;53236;43.666;18.444;2023-07-09T08:26:03;39.00;38.50
65462;DHT22;53236;43.666;18.444;2023-07-09T08:28:30;37.50;39.80
65462;DHT22;53236;43.666;18.444;2023-07-09T08:30:56;36.90;40.70
65462;DHT22;53236;43.666;18.444;2023-07-09T08:33:23;35.70;42.50
65462;DHT22;53236;43.666;18.444;2023-07-09T08:35:50;35.20;44.70
65462;DHT22;53236;43.666;18.444;2023-07-09T08:38:16;33.50;44.30
65462;DHT22;53236;43.666;18.444;2023-07-09T08:40:54;33.30;44.70
65462;DHT22;53236;43.666;18.444;2023-07-09T08:48:36;32.90;47.40
65462;DHT22;53236;43.666;18.444;2023-07-09T08:51:15;32.20;45.90
65462;DHT22;53236;43.666;18.444;2023-07-09T08:53:50;32.50;48.50
65462;DHT22;53236;43.666;18.444;2023-07-09T08:56:18;32.50;48.60
65462;DHT22;53236;43.666;18.444;2023-07-09T08:58:52;32.00;46.40
65462;DHT22;53236;43.666;18.444;2023-07-09T09:03:58;30.70;49.40
65462;DHT22;53236;43.666;18.444;2023-07-09T09:06:29;30.60;49.80
65462;DHT22;53236;43.666;18.444;2023-07-09T09:09:21;30.00;48.50
65462;DHT22;53236;43.666;18.444;2023-07-09T09:14:44;30.20;53.50
65462;DHT22;53236;43.666;18.444;2023-07-09T09:17:13;30.10;51.50
65462;DHT22;53236;43.666;18.444;2023-07-09T09:19:45;29.30;50.50
65462;DHT22;53236;43.666;18.444;2023-07-09T09:22:13;28.70;50.90
65462;DHT22;53236;43.666;18.444;2023-07-09T09:27:34;28.40;53.60
65462;DHT22;53236;43.666;18.444;2023-07-09T09:30:00;28.00;54.60
65462;DHT22;53236;43.666;18.444;2023-07-09T09:32:34;28.00;53.40
65462;DHT22;53236;43.666;18.444;2023-07-09T09:35:15;28.00;53.80
65462;DHT22;53236;43.666;18.444;2023-07-09T09:37:49;28.50;53.40
65462;DHT22;53236;43.666;18.444;2023-07-09T09:40:18;28.90;53.50
65462;DHT22;53236;43.666;18.444;2023-07-09T09:42:44;29.30;53.90
65462;DHT22;53236;43.666;18.444;2023-07-09T09:45:16;29.70;54.10
65462;DHT22;53236;43.666;18.444;2023-07-09T09:47:44;30.00;55.50
65462;DHT22;53236;43.666;18.444;2023-07-09T09:50:18;30.40;53.60
65462;DHT22;53236;43.666;18.444;2023-07-09T09:52:45;30.40;48.80
65462;DHT22;53236;43.666;18.444;2023-07-09T09:55:24;30.10;49.00
65462;DHT22;53236;43.666;18.444;2023-07-09T09:57:52;29.90;53.10
65462;DHT22;53236;43.666;18.444;2023-07-09T10:00:22;29.10;50.40
65462;DHT22;53236;43.666;18.444;2023-07-09T10:02:48;28.30;51.50
65462;DHT22;53236;43.666;18.444;2023-07-09T10:05:15;28.00;52.90
65462;DHT22;53236;43.666;18.444;2023-07-09T10:10:30;27.70;57.80
65462;DHT22;53236;43.666;18.444;2023-07-09T10:13:30;28.10;58.90
65462;DHT22;53236;43.666;18.444;2023-07-09T10:16:05;28.20;54.10
65462;DHT22;53236;43.666;18.444;2023-07-09T10:18:50;28.40;55.80
65462;DHT22;53236;43.666;18.444;2023-07-09T10:21:39;28.30;57.50
65462;DHT22;53236;43.666;18.444;2023-07-09T10:24:18;27.90;53.70
65462;DHT22;53236;43.666;18.444;2023-07-09T10:32:17;28.30;53.00
65462;DHT22;53236;43.666;18.444;2023-07-09T10:34:59;28.10;51.90
65462;DHT22;53236;43.666;18.444;2023-07-09T10:37:35;28.20;58.10
65462;DHT22;53236;43.666;18.444;2023-07-09T10:40:09;28.20;56.20
65462;DHT22;53236;43.666;18.444;2023-07-09T10:42:43;28.40;50.80
65462;DHT22;53236;43.666;18.444;2023-07-09T10:45:13;28.50;51.40
65462;DHT22;53236;43.666;18.444;2023-07-09T10:47:44;28.10;51.70
65462;DHT22;53236;43.666;18.444;2023-07-09T10:50:29;28.40;53.20
65462;DHT22;53236;43.666;18.444;2023-07-09T10:53:01;28.50;52.90
65462;DHT22;53236;43.666;18.444;2023-07-09T10:55:52;28.40;55.20
65462;DHT22;53236;43.666;18.444;2023-07-09T10:58:37;28.30;53.70
65462;DHT22;53236;43.666;18.444;2023-07-09T11:01:05;28.20;58.70
65462;DHT22;53236;43.666;18.444;2023-07-09T11:03:42;28.40;54.20
65462;DHT22;53236;43.666;18.444;2023-07-09T11:06:21;28.00;55.90
65462;DHT22;53236;43.666;18.444;2023-07-09T11:08:50;27.90;56.30
65462;DHT22;53236;43.666;18.444;2023-07-09T11:11:25;27.90;57.70
65462;DHT22;53236;43.666;18.444;2023-07-09T11:13:58;28.10;56.40
65462;DHT22;53236;43.666;18.444;2023-07-09T11:16:32;27.80;57.30
65462;DHT22;53236;43.666;18.444;2023-07-09T11:19:02;27.80;57.50
65462;DHT22;53236;43.666;18.444;2023-07-09T11:21:29;27.90;56.00
65462;DHT22;53236;43.666;18.444;2023-07-09T11:23:57;27.90;59.50
65462;DHT22;53236;43.666;18.444;2023-07-09T11:26:33;28.10;60.50
65462;DHT22;53236;43.666;18.444;2023-07-09T11:31:42;27.90;55.90
65462;DHT22;53236;43.666;18.444;2023-07-09T11:34:20;28.00;58.90
65462;DHT22;53236;43.666;18.444;2023-07-09T11:39:29;27.80;57.60
65462;DHT22;53236;43.666;18.444;2023-07-09T11:41:56;27.60;59.10
65462;DHT22;53236;43.666;18.444;2023-07-09T11:44:31;27.60;61.20
65462;DHT22;53236;43.666;18.444;2023-07-09T11:49:54;27.60;59.00
65462;DHT22;53236;43.666;18.444;2023-07-09T11:52:38;27.60;62.10
65462;DHT22;53236;43.666;18.444;2023-07-09T11:55:42;27.70;63.30
65462;DHT22;53236;43.666;18.444;2023-07-09T11:58:15;27.80;59.90
65462;DHT22;53236;43.666;18.444;2023-07-09T12:03:23;27.80;58.60
65462;DHT22;53236;43.666;18.444;2023-07-09T12:05:52;27.80;63.10
65462;DHT22;53236;43.666;18.444;2023-07-09T12:08:23;27.80;57.40
65462;DHT22;53236;43.666;18.444;2023-07-09T12:10:50;27.90;59.50
65462;DHT22;53236;43.666;18.444;2023-07-09T12:13:18;27.40;60.00
65462;DHT22;53236;43.666;18.444;2023-07-09T12:15:43;27.40;61.80
65462;DHT22;53236;43.666;18.444;2023-07-09T12:18:14;27.50;62.30
65462;DHT22;53236;43.666;18.444;2023-07-09T12:20:41;27.40;59.90
65462;DHT22;53236;43.666;18.444;2023-07-09T12:23:32;27.20;59.20
65462;DHT22;53236;43.666;18.444;2023-07-09T12:26:02;27.00;60.20
65462;DHT22;53236;43.666;18.444;2023-07-09T12:28:29;27.10;62.30
65462;DHT22;53236;43.666;18.444;2023-07-09T12:30:55;27.20;62.00
65462;DHT22;53236;43.666;18.444;2023-07-09T12:33:23;27.30;66.10
65462;DHT22;53236;43.666;18.444;2023-07-09T12:36:01;27.40;61.80
65462;DHT22;53236;43.666;18.444;2023-07-09T12:38:32;27.30;59.00
65462;DHT22;53236;43.666;18.444;2023-07-09T12:41:04;27.30;58.90
65462;DHT22;53236;43.666;18.444;2023-07-09T12:43:31;27.30;59.80
65462;DHT22;53236;43.666;18.444;2023-07-09T12:45:59;27.20;60.60
65462;DHT22;53236;43.666;18.444;2023-07-09T12:48:29;27.10;60.40
65462;DHT22;53236;43.666;18.444;2023-07-09T12:50:57;27.20;61.20
65462;DHT22;53236;43.666;18.444;2023-07-09T12:53:26;27.20;62.00
65462;DHT22;53236;43.666;18.444;2023-07-09T12:55:55;27.20;62.70
65462;DHT22;53236;43.666;18.444;2023-07-09T12:58:23;27.20;63.20
65462;DHT22;53236;43.666;18.444;2023-07-09T13:00:54;27.40;62.40
65462;DHT22;53236;43.666;18.444;2023-07-09T13:03:25;27.40;58.70
65462;DHT22;53236;43.666;18.444;2023-07-09T13:05:57;27.50;59.60
65462;DHT22;53236;43.666;18.444;2023-07-09T13:08:25;27.10;59.30
65462;DHT22;53236;43.666;18.444;2023-07-09T13:10:51;26.90;63.60
65462;DHT22;53236;43.666;18.444;2023-07-09T13:13:20;27.00;63.40
65462;DHT22;53236;43.666;18.444;2023-07-09T13:15:52;27.20;61.40
65462;DHT22;53236;43.666;18.444;2023-07-09T13:18:23;27.40;61.70
65462;DHT22;53236;43.666;18.444;2023-07-09T13:20:50;27.40;61.30
65462;DHT22;53236;43.666;18.444;2023-07-09T13:23:26;27.10;59.60
65462;DHT22;53236;43.666;18.444;2023-07-09T13:25:52;27.10;60.40
65462;DHT22;53236;43.666;18.444;2023-07-09T13:28:25;27.20;60.50
65462;DHT22;53236;43.666;18.444;2023-07-09T13:30:53;26.90;59.50
65462;DHT22;53236;43.666;18.444;2023-07-09T13:33:21;27.00;61.10
65462;DHT22;53236;43.666;18.444;2023-07-09T13:35:47;27.10;59.80
65462;DHT22;53236;43.666;18.444;2023-07-09T13:38:15;27.10;61.00
65462;DHT22;53236;43.666;18.444;2023-07-09T13:40:43;27.20;62.40
65462;DHT22;53236;43.666;18.444;2023-07-09T13:43:26;27.10;59.80
65462;DHT22;53236;43.666;18.444;2023-07-09T13:45:52;27.10;61.50
65462;DHT22;53236;43.666;18.444;2023-07-09T13:48:20;27.30;60.10
65462;DHT22;53236;43.666;18.444;2023-07-09T13:50:49;27.40;61.50
65462;DHT22;53236;43.666;18.444;2023-07-09T13:53:18;27.60;60.40
65462;DHT22;53236;43.666;18.444;2023-07-09T13:55:45;27.70;61.60
65462;DHT22;53236;43.666;18.444;2023-07-09T13:58:13;27.40;59.20
65462;DHT22;53236;43.666;18.444;2023-07-09T14:00:41;27.30;62.40
65462;DHT22;53236;43.666;18.444;2023-07-09T14:03:33;27.40;59.20
65462;DHT22;53236;43.666;18.444;2023-07-09T14:06:00;27.20;58.10
65462;DHT22;53236;43.666;18.444;2023-07-09T14:08:26;27.30;59.40
65462;DHT22;53236;43.666;18.444;2023-07-09T14:10:52;27.20;59.90
65462;DHT22;53236;43.666;18.444;2023-07-09T14:13:20;27.20;61.30
65462;DHT22;53236;43.666;18.444;2023-07-09T14:15:46;27.20;60.30
65462;DHT22;53236;43.666;18.444;2023-07-09T14:18:16;27.40;60.30
65462;DHT22;53236;43.666;18.444;2023-07-09T14:20:42;27.30;58.20
65462;DHT22;53236;43.666;18.444;2023-07-09T14:23:12;27.30;58.50
65462;DHT22;53236;43.666;18.444;2023-07-09T14:25:39;27.30;59.50
65462;DHT22;53236;43.666;18.444;2023-07-09T14:28:18;27.20;60.70
65462;DHT22;53236;43.666;18.444;2023-07-09T14:30:45;27.30;59.60
65462;DHT22;53236;43.666;18.444;2023-07-09T14:33:14;27.30;61.00
65462;DHT22;53236;43.666;18.444;2023-07-09T14:35:40;27.10;60.10
65462;DHT22;53236;43.666;18.444;2023-07-09T14:38:32;27.30;60.70
65462;DHT22;53236;43.666;18.444;2023-07-09T14:40:59;27.10;58.60
65462;DHT22;53236;43.666;18.444;2023-07-09T14:43:29;26.90;59.40
65462;DHT22;53236;43.666;18.444;2023-07-09T14:45:55;26.90;61.00
65462;DHT22;53236;43.666;18.444;2023-07-09T14:48:21;26.90;61.40
65462;DHT22;53236;43.666;18.444;2023-07-09T14:50:48;26.80;60.20
65462;DHT22;53236;43.666;18.444;2023-07-09T14:53:24;26.70;59.30
65462;DHT22;53236;43.666;18.444;2023-07-09T14:55:51;26.80;61.10
65462;DHT22;53236;43.666;18.444;2023-07-09T14:58:19;26.70;60.80
65462;DHT22;53236;43.666;18.444;2023-07-09T15:00:46;26.80;60.10
65462;DHT22;53236;43.666;18.444;2023-07-09T15:03:19;26.70;60.00
65462;DHT22;53236;43.666;18.444;2023-07-09T15:05:45;26.50;60.20
65462;DHT22;53236;43.666;18.444;2023-07-09T15:08:16;26.50;60.40
65462;DHT22;53236;43.666;18.444;2023-07-09T15:10:42;26.50;62.50
65462;DHT22;53236;43.666;18.444;2023-07-09T15:13:35;26.50;62.90
65462;DHT22;53236;43.666;18.444;2023-07-09T15:16:03;26.50;63.80
65462;DHT22;53236;43.666;18.444;2023-07-09T15:18:30;26.60;63.40
65462;DHT22;53236;43.666;18.444;2023-07-09T15:21:00;26.60;62.90
65462;DHT22;53236;43.666;18.444;2023-07-09T15:23:27;26.50;62.90
65462;DHT22;53236;43.666;18.444;2023-07-09T15:25:54;26.30;62.20
65462;DHT22;53236;43.666;18.444;2023-07-09T15:28:20;26.30;63.70
65462;DHT22;53236;43.666;18.444;2023-07-09T15:30:46;26.30;62.70
65462;DHT22;53236;43.666;18.444;2023-07-09T15:33:17;26.30;63.10
65462;DHT22;53236;43.666;18.444;2023-07-09T15:35:46;26.20;63.00
65462;DHT22;53236;43.666;18.444;2023-07-09T15:38:32;26.10;63.20
65462;DHT22;53236;43.666;18.444;2023-07-09T15:41:00;26.10;63.90
65462;DHT22;53236;43.666;18.444;2023-07-09T15:43:26;26.00;62.50
65462;DHT22;53236;43.666;18.444;2023-07-09T15:45:55;26.00;64.20
65462;DHT22;53236;43.666;18.444;2023-07-09T15:48:27;25.90;63.10
65462;DHT22;53236;43.666;18.444;2023-07-09T15:50:55;25.80;63.10
65462;DHT22;53236;43.666;18.444;2023-07-09T15:53:21;25.70;63.90
65462;DHT22;53236;43.666;18.444;2023-07-09T15:55:48;25.70;64.00
65462;DHT22;53236;43.666;18.444;2023-07-09T15:58:26;25.70;64.60
65462;DHT22;53236;43.666;18.444;2023-07-09T16:00:52;25.80;65.30
65462;DHT22;53236;43.666;18.444;2023-07-09T16:03:18;25.70;63.50